WYB weather

Yes Bay Lodge Seaplane Base
Yes Bay, Alaska, United States

Public forecast

Using degrees Fahrenheit for public forecast. Weather courtesy of forecast.io.

Closest aviation weather report (METAR) to Yes Bay Lodge Seaplane Base

Closest report is Ketchikan International Airport, 33.8 nm (62.6 km) S. Retrieved 2019/11/20 07:53 UTC (15 minutes ago):

PAKT 200753Z AUTO 16004KT 10SM OVC021 06/05 A3027

Closest aviation forecast (TAF) to Yes Bay Lodge Seaplane Base

Closest forecast is Ketchikan International Airport, 33.8 nm (62.6 km) S. Retrieved 2019/11/20 06:30 UTC (2 hours ago):

TAF PAKT 200529Z 2006/2106 15005KT P6SM SCT020 OVC050 FM201200 15005KT 3SM BR SCT009 BKN025 OVC040 FM201800 14007KT P6SM BKN030 OVC050 AMD LTD TO CLD VIS AND WIND 2006/2015